createdAt,value
2022-11-02T00:00:52.090Z,11.75
2022-11-02T00:03:18.982Z,14.93
2022-11-02T00:05:45.931Z,12.77
2022-11-02T00:08:12.911Z,13.60
2022-11-02T00:10:39.721Z,12.15
2022-11-02T00:13:06.854Z,16.05
2022-11-02T00:15:36.548Z,15.52
2022-11-02T00:18:09.665Z,18.70
2022-11-02T00:20:39.562Z,17.77
2022-11-02T00:23:10.707Z,17.55
2022-11-02T00:25:46.245Z,19.00
2022-11-02T00:28:14.287Z,18.25
2022-11-02T00:30:41.651Z,18.55
2022-11-02T00:33:08.622Z,17.52
2022-11-02T00:35:36.976Z,20.33
2022-11-02T00:38:04.477Z,19.60
2022-11-02T00:40:31.940Z,18.00
2022-11-02T00:42:59.079Z,19.27
2022-11-02T00:45:26.092Z,16.33
2022-11-02T00:47:52.938Z,16.58
2022-11-02T00:50:19.774Z,17.77
2022-11-02T00:52:46.638Z,17.33
2022-11-02T00:55:15.401Z,18.25
2022-11-02T00:57:44.882Z,17.27
2022-11-02T01:00:12.851Z,18.20
2022-11-02T01:02:39.808Z,18.50
2022-11-02T01:05:09.068Z,17.65
2022-11-02T01:07:37.493Z,16.95
2022-11-02T01:10:08.555Z,17.00
2022-11-02T01:12:40.699Z,15.07
2022-11-02T01:15:11.001Z,15.23
2022-11-02T01:17:38.838Z,14.75
2022-11-02T01:20:07.696Z,13.88
2022-11-02T01:22:34.687Z,14.15
2022-11-02T01:25:01.653Z,13.23
2022-11-02T01:27:28.486Z,13.35
2022-11-02T01:29:55.345Z,12.55
2022-11-02T01:32:22.206Z,12.27
2022-11-02T01:34:49.117Z,13.23
2022-11-02T01:37:16.146Z,12.38
2022-11-02T01:39:43.106Z,13.10
2022-11-02T01:42:22.761Z,12.82
2022-11-02T01:44:49.943Z,13.20
2022-11-02T01:47:27.180Z,12.18
2022-11-02T01:50:04.609Z,13.52
2022-11-02T01:52:41.341Z,13.35
2022-11-02T01:55:25.996Z,13.40
2022-11-02T01:58:13.181Z,13.82
2022-11-02T02:00:40.494Z,15.32
2022-11-02T02:03:17.584Z,16.85
2022-11-02T02:05:58.044Z,18.23
2022-11-02T02:08:28.279Z,16.67
2022-11-02T02:10:59.269Z,17.52
2022-11-02T02:13:28.802Z,19.13
2022-11-02T02:16:18.759Z,20.42
2022-11-02T02:18:57.427Z,18.40
2022-11-02T02:21:42.111Z,17.83
2022-11-02T02:24:34.149Z,19.73
2022-11-02T02:27:22.004Z,19.27
2022-11-02T02:30:02.569Z,18.55
2022-11-02T02:32:54.884Z,21.85
2022-11-02T02:35:39.329Z,21.30
2022-11-02T02:38:29.122Z,21.45
2022-11-02T02:44:31.948Z,21.75
2022-11-02T02:47:21.321Z,21.17
2022-11-02T02:50:06.589Z,22.20
2022-11-02T02:52:37.733Z,22.77
2022-11-02T02:55:08.397Z,22.58
2022-11-02T02:57:37.565Z,20.10
2022-11-02T03:00:05.132Z,21.65
2022-11-02T03:02:38.062Z,20.10
2022-11-02T03:05:26.531Z,19.85
2022-11-02T03:07:56.630Z,21.95
2022-11-02T03:10:34.498Z,18.48
2022-11-02T03:13:32.737Z,20.10
2022-11-02T03:16:11.714Z,22.60
2022-11-02T03:19:10.597Z,21.70
2022-11-02T03:21:44.416Z,22.33
2022-11-02T03:24:26.783Z,20.92
2022-11-02T03:27:22.240Z,20.65
2022-11-02T03:30:09.938Z,18.40
2022-11-02T03:32:44.803Z,20.35
2022-11-02T03:35:23.442Z,20.00
2022-11-02T03:38:02.415Z,20.95
2022-11-02T03:40:37.725Z,19.17
2022-11-02T03:43:07.436Z,19.92
2022-11-02T03:45:43.845Z,21.38
2022-11-02T03:48:14.366Z,22.27
2022-11-02T03:50:48.961Z,28.98
2022-11-02T03:53:37.406Z,34.78
2022-11-02T03:56:12.264Z,34.58
2022-11-02T03:58:39.578Z,34.75
2022-11-02T04:01:08.316Z,31.00
2022-11-02T04:03:44.828Z,38.38
2022-11-02T04:06:13.156Z,39.75
2022-11-02T04:08:45.985Z,37.40
2022-11-02T04:11:32.859Z,33.72
2022-11-02T04:14:25.196Z,36.08
2022-11-02T04:17:15.514Z,32.22
2022-11-02T04:19:49.816Z,29.20
2022-11-02T04:22:37.969Z,30.95
2022-11-02T04:25:18.908Z,30.17
2022-11-02T04:28:09.881Z,26.52
2022-11-02T04:31:02.482Z,28.38
2022-11-02T04:33:35.040Z,25.80
2022-11-02T04:36:20.054Z,28.80
2022-11-02T04:38:52.520Z,27.95
2022-11-02T04:41:43.024Z,27.90
2022-11-02T04:44:29.090Z,24.50
2022-11-02T04:47:01.483Z,25.90
2022-11-02T04:49:31.666Z,26.42
2022-11-02T04:51:59.030Z,24.77
2022-11-02T04:54:27.838Z,24.27
2022-11-02T04:56:58.679Z,24.02
2022-11-02T04:59:26.932Z,26.95
2022-11-02T05:01:54.098Z,22.90
2022-11-02T05:04:21.307Z,25.00
2022-11-02T05:06:49.449Z,24.42
2022-11-02T05:09:17.881Z,23.67
2022-11-02T05:11:50.815Z,23.20
2022-11-02T05:14:17.738Z,22.50
2022-11-02T05:16:45.013Z,22.92
2022-11-02T05:19:13.496Z,20.25
2022-11-02T05:21:40.373Z,21.90
2022-11-02T05:24:07.947Z,21.20
2022-11-02T05:26:35.360Z,21.52
2022-11-02T05:29:02.560Z,19.55
2022-11-02T05:31:30.029Z,20.45
2022-11-02T05:33:58.442Z,19.60
2022-11-02T05:36:25.884Z,20.17
2022-11-02T05:38:54.790Z,18.63
2022-11-02T05:41:23.662Z,20.52
2022-11-02T05:43:53.063Z,19.35
2022-11-02T05:46:21.719Z,18.55
2022-11-02T05:48:48.492Z,17.52
2022-11-02T05:51:15.407Z,19.95
2022-11-02T05:53:42.260Z,19.55
2022-11-02T05:56:11.721Z,17.92
2022-11-02T05:58:38.704Z,17.15
2022-11-02T06:01:08.543Z,16.98
2022-11-02T06:03:36.656Z,18.58
2022-11-02T06:06:07.388Z,19.33
2022-11-02T06:08:37.398Z,19.02
2022-11-02T06:11:06.439Z,17.88
2022-11-02T06:13:33.835Z,16.45
2022-11-02T06:16:02.893Z,17.75
2022-11-02T06:18:31.431Z,18.88
2022-11-02T06:20:59.245Z,18.42
2022-11-02T06:23:28.719Z,20.20
2022-11-02T06:25:58.652Z,19.73
2022-11-02T06:28:26.834Z,18.10
2022-11-02T06:30:54.593Z,19.13
2022-11-02T06:33:22.157Z,19.40
2022-11-02T06:35:52.773Z,20.35
2022-11-02T06:38:20.274Z,19.70
2022-11-02T06:41:04.239Z,18.50
2022-11-02T06:43:34.015Z,20.83
2022-11-02T06:46:00.826Z,18.33
2022-11-02T06:48:33.327Z,18.08
2022-11-02T06:51:02.816Z,21.27
2022-11-02T06:53:29.867Z,18.83
2022-11-02T06:55:58.691Z,19.50
2022-11-02T06:58:26.757Z,19.70
2022-11-02T07:01:04.443Z,19.52
2022-11-02T07:03:31.805Z,19.05
2022-11-02T07:05:59.270Z,16.77
2022-11-02T07:08:28.162Z,20.15
2022-11-02T07:10:55.980Z,16.63
2022-11-02T07:13:22.890Z,15.77
2022-11-02T07:15:54.009Z,15.50
2022-11-02T07:18:21.804Z,15.02
2022-11-02T07:20:48.698Z,14.95
2022-11-02T07:23:15.572Z,15.75
2022-11-02T07:25:42.463Z,15.63
2022-11-02T07:28:10.053Z,13.57
2022-11-02T07:30:37.093Z,14.02
2022-11-02T07:33:07.176Z,14.18
2022-11-02T07:35:34.318Z,14.40
2022-11-02T07:38:05.386Z,14.82
2022-11-02T07:40:35.445Z,16.13
2022-11-02T07:43:04.305Z,16.08
2022-11-02T07:46:03.908Z,14.65
2022-11-02T07:48:31.254Z,14.30
2022-11-02T07:51:01.238Z,14.27
2022-11-02T07:53:28.238Z,13.82
2022-11-02T07:55:55.200Z,14.13
2022-11-02T07:58:22.120Z,13.57
2022-11-02T08:00:49.008Z,14.43
2022-11-02T08:03:16.102Z,13.48
2022-11-02T08:05:43.618Z,12.35
2022-11-02T08:08:15.609Z,12.85
2022-11-02T08:10:44.465Z,13.63
2022-11-02T08:13:19.413Z,12.57
2022-11-02T08:16:00.088Z,13.35
2022-11-02T08:18:42.703Z,11.18
2022-11-02T08:21:28.475Z,13.13
2022-11-02T08:24:03.918Z,12.88
2022-11-02T08:26:44.106Z,12.48
2022-11-02T08:29:56.588Z,13.40
2022-11-02T08:32:27.924Z,13.57
2022-11-02T08:35:59.584Z,13.10
2022-11-02T08:42:22.167Z,11.60
2022-11-02T08:44:58.822Z,10.27
2022-11-02T08:47:28.083Z,9.85
2022-11-02T08:49:54.935Z,9.88
2022-11-02T08:52:21.913Z,8.93
2022-11-02T08:54:48.779Z,6.97
2022-11-02T08:57:15.729Z,7.85
2022-11-02T08:59:42.674Z,6.72
2022-11-02T09:02:10.590Z,5.82
2022-11-02T09:04:37.750Z,5.10
2022-11-02T09:07:04.933Z,3.95
2022-11-02T09:09:37.861Z,2.70
2022-11-02T09:12:05.142Z,2.90
2022-11-02T09:14:32.658Z,3.10
2022-11-02T09:16:59.894Z,2.97
2022-11-02T09:19:26.919Z,2.33
2022-11-02T09:21:53.804Z,2.10
2022-11-02T09:24:21.210Z,2.80
2022-11-02T09:26:49.454Z,2.13
2022-11-02T09:29:16.629Z,2.08
2022-11-02T09:31:43.748Z,1.80
2022-11-02T09:34:13.712Z,1.73
2022-11-02T09:36:41.368Z,2.30
2022-11-02T09:39:08.864Z,2.40
2022-11-02T09:42:05.847Z,2.22
2022-11-02T09:45:06.674Z,2.05
2022-11-02T09:48:15.210Z,1.65
2022-11-02T09:50:50.261Z,1.80
2022-11-02T09:53:35.748Z,1.48
2022-11-02T09:56:07.681Z,1.25
2022-11-02T09:58:43.245Z,1.50
2022-11-02T10:01:33.834Z,1.63
2022-11-02T10:04:06.684Z,1.15
2022-11-02T10:06:39.827Z,1.80
2022-11-02T10:09:25.476Z,1.20
2022-11-02T10:12:15.592Z,1.40
2022-11-02T10:15:03.942Z,1.30
2022-11-02T10:17:37.622Z,1.45
2022-11-02T10:20:40.071Z,2.08
2022-11-02T10:23:15.826Z,1.67
2022-11-02T10:25:44.320Z,1.70
2022-11-02T10:28:20.288Z,1.20
2022-11-02T10:30:47.576Z,1.80
2022-11-02T10:33:25.183Z,1.95
2022-11-02T10:36:31.355Z,1.30
2022-11-02T10:39:24.618Z,1.58
2022-11-02T10:42:18.640Z,1.20
2022-11-02T10:45:18.625Z,1.50
2022-11-02T10:48:12.805Z,1.55
2022-11-02T10:51:08.677Z,1.85
2022-11-02T10:53:42.222Z,1.50
2022-11-02T10:56:21.434Z,1.23
2022-11-02T10:59:12.867Z,1.20
2022-11-02T11:01:48.220Z,1.45
2022-11-02T11:04:27.352Z,1.88
2022-11-02T11:06:59.615Z,1.70
2022-11-02T11:09:51.467Z,1.73
2022-11-02T11:12:40.941Z,1.33
2022-11-02T11:21:08.013Z,1.30
2022-11-02T11:23:35.091Z,1.60
2022-11-02T11:26:28.016Z,1.65
2022-11-02T11:28:57.084Z,1.83
2022-11-02T11:31:25.285Z,2.05
2022-11-02T11:33:57.505Z,1.73
2022-11-02T11:36:35.549Z,1.85
2022-11-02T11:39:07.878Z,1.60
2022-11-02T11:41:40.580Z,1.77
2022-11-02T11:44:15.343Z,1.55
2022-11-02T11:46:57.262Z,1.38
2022-11-02T11:50:07.743Z,1.67
2022-11-02T11:52:33.073Z,1.37
2022-11-02T11:55:18.887Z,2.38
2022-11-02T11:57:45.976Z,1.88
2022-11-02T12:00:28.833Z,1.38
2022-11-02T12:03:08.545Z,1.65
2022-11-02T12:06:00.238Z,2.08
2022-11-02T12:08:44.599Z,1.58
2022-11-02T12:11:32.569Z,1.40
2022-11-02T12:14:07.666Z,1.70
2022-11-02T12:17:31.429Z,1.70
2022-11-02T12:20:33.106Z,1.30
2022-11-02T12:23:14.953Z,2.03
2022-11-02T12:26:05.780Z,1.60
2022-11-02T12:29:16.183Z,1.42
2022-11-02T12:32:00.741Z,1.60
2022-11-02T12:35:22.952Z,1.40
2022-11-02T12:37:59.359Z,1.52
2022-11-02T12:41:11.661Z,1.23
2022-11-02T12:43:47.640Z,1.15
2022-11-02T12:46:48.548Z,1.20
2022-11-02T12:49:40.652Z,1.40
2022-11-02T12:52:40.790Z,1.58
2022-11-02T12:55:19.026Z,1.73
2022-11-02T12:57:48.159Z,1.25
2022-11-02T13:00:22.454Z,1.60
2022-11-02T13:03:30.000Z,1.48
2022-11-02T13:06:06.371Z,1.63
2022-11-02T13:09:06.101Z,1.58
2022-11-02T13:11:50.574Z,1.70
2022-11-02T13:14:20.972Z,1.00
2022-11-02T13:17:05.380Z,1.20
2022-11-02T13:19:39.972Z,1.40
2022-11-02T13:22:11.267Z,1.27
2022-11-02T13:24:49.613Z,1.40
2022-11-02T13:27:50.765Z,1.50
2022-11-02T13:30:19.624Z,1.50
2022-11-02T13:33:18.175Z,1.55
2022-11-02T13:35:46.223Z,2.05
2022-11-02T13:38:13.049Z,1.80
2022-11-02T13:41:04.919Z,1.75
2022-11-02T13:44:02.020Z,1.60
2022-11-02T13:47:11.933Z,1.42
2022-11-02T13:49:56.283Z,1.30
2022-11-02T13:52:44.270Z,1.52
2022-11-02T13:55:21.421Z,1.30
2022-11-02T13:57:56.262Z,1.50
2022-11-02T14:03:03.723Z,1.13
2022-11-02T14:05:35.109Z,1.27
2022-11-02T14:11:36.485Z,1.40
2022-11-02T14:14:35.245Z,1.20
2022-11-02T14:17:22.444Z,1.30
2022-11-02T14:19:55.229Z,1.20
2022-11-02T14:22:22.678Z,1.73
2022-11-02T14:24:49.439Z,1.33
2022-11-02T14:27:20.069Z,1.55
2022-11-02T14:29:47.039Z,1.70
2022-11-02T14:32:51.456Z,1.63
2022-11-02T14:35:44.750Z,1.50
2022-11-02T14:38:39.637Z,1.60
2022-11-02T14:41:29.385Z,1.67
2022-11-02T14:44:07.540Z,0.95
2022-11-02T14:47:07.737Z,1.15
2022-11-02T14:49:48.871Z,1.30
2022-11-02T14:52:15.611Z,1.15
2022-11-02T14:55:00.109Z,1.00
2022-11-02T14:57:35.814Z,1.03
2022-11-02T15:00:18.693Z,1.25
2022-11-02T15:02:46.605Z,1.50
2022-11-02T15:05:35.971Z,1.10
2022-11-02T15:08:31.174Z,1.30
2022-11-02T15:10:58.544Z,1.20
2022-11-02T15:13:36.680Z,1.25
2022-11-02T15:16:12.512Z,1.10
2022-11-02T15:18:40.545Z,1.20
2022-11-02T15:21:10.266Z,1.48
2022-11-02T15:24:30.860Z,1.40
2022-11-02T15:27:00.896Z,2.53
2022-11-02T15:29:58.217Z,1.90
2022-11-02T15:32:29.934Z,1.52
2022-11-02T15:34:57.985Z,1.70
2022-11-02T15:37:34.650Z,1.70
2022-11-02T15:40:22.461Z,1.55
2022-11-02T15:43:13.792Z,1.83
2022-11-02T15:46:09.780Z,1.77
2022-11-02T15:49:00.481Z,1.65
2022-11-02T15:52:14.696Z,1.75
2022-11-02T15:55:18.151Z,2.33
2022-11-02T15:58:15.633Z,2.20
2022-11-02T16:00:42.724Z,2.80
2022-11-02T16:03:11.058Z,2.70
2022-11-02T16:05:47.598Z,2.65
2022-11-02T16:08:32.295Z,3.03
2022-11-02T16:11:17.723Z,2.85
2022-11-02T16:16:35.487Z,3.08
2022-11-02T16:19:02.968Z,1.60
2022-11-02T16:21:30.706Z,2.53
2022-11-02T16:23:59.312Z,1.70
2022-11-02T16:26:29.766Z,1.88
2022-11-02T16:28:59.896Z,1.95
2022-11-02T16:31:32.217Z,2.25
2022-11-02T16:34:29.665Z,2.20
2022-11-02T16:36:58.014Z,2.13
2022-11-02T16:39:36.467Z,2.20
2022-11-02T16:42:15.079Z,2.03
2022-11-02T16:44:43.132Z,1.85
2022-11-02T16:47:09.945Z,1.83
2022-11-02T16:49:52.046Z,2.13
2022-11-02T16:52:28.956Z,2.42
2022-11-02T16:54:56.286Z,2.40
2022-11-02T16:57:43.164Z,2.45
2022-11-02T17:00:20.688Z,1.67
2022-11-02T17:02:48.129Z,1.80
2022-11-02T17:05:20.768Z,2.75
2022-11-02T17:08:00.312Z,1.85
2022-11-02T17:10:33.490Z,2.47
2022-11-02T17:13:02.795Z,1.73
2022-11-02T17:15:37.429Z,2.03
2022-11-02T17:18:31.720Z,2.42
2022-11-02T17:21:13.860Z,2.17
2022-11-02T17:23:46.681Z,2.17
2022-11-02T17:26:22.769Z,2.00
2022-11-02T17:29:02.029Z,2.28
2022-11-02T17:31:38.261Z,2.15
2022-11-02T17:34:16.320Z,1.80
2022-11-02T17:36:51.983Z,2.00
2022-11-02T17:39:20.918Z,1.98
2022-11-02T17:42:16.382Z,1.70
2022-11-02T17:44:45.468Z,2.58
2022-11-02T17:47:15.858Z,1.60
2022-11-02T17:52:37.377Z,2.30
2022-11-02T17:55:06.730Z,1.98
2022-11-02T17:57:33.979Z,1.85
2022-11-02T18:00:00.865Z,2.33
2022-11-02T18:02:27.860Z,2.10
2022-11-02T18:04:54.748Z,2.50
2022-11-02T18:07:21.610Z,2.10
2022-11-02T18:09:48.449Z,1.80
2022-11-02T18:12:15.896Z,2.20
2022-11-02T18:14:43.329Z,2.17
2022-11-02T18:17:10.256Z,2.55
2022-11-02T18:19:37.195Z,2.30
2022-11-02T18:22:04.038Z,2.72
2022-11-02T18:24:30.954Z,2.70
2022-11-02T18:26:57.832Z,2.30
2022-11-02T18:29:25.072Z,2.05
2022-11-02T18:31:51.944Z,2.20
2022-11-02T18:34:18.850Z,2.90
2022-11-02T18:36:45.721Z,2.80
2022-11-02T18:39:12.608Z,2.60
2022-11-02T18:41:40.386Z,2.58
2022-11-02T18:44:14.981Z,2.55
2022-11-02T18:46:42.821Z,2.20
2022-11-02T18:49:09.788Z,2.55
2022-11-02T18:51:36.972Z,2.20
2022-11-02T18:54:06.262Z,2.50
2022-11-02T18:56:33.646Z,2.63
2022-11-02T18:59:01.209Z,2.60
2022-11-02T19:01:28.427Z,2.78
2022-11-02T19:03:58.582Z,2.67
2022-11-02T19:06:47.558Z,3.15
2022-11-02T19:09:19.422Z,3.15
2022-11-02T19:12:04.098Z,2.55
2022-11-02T19:14:45.271Z,3.70
2022-11-02T19:17:15.072Z,2.88
2022-11-02T19:19:45.348Z,3.00
2022-11-02T19:22:18.302Z,3.15
2022-11-02T19:24:45.440Z,3.00
2022-11-02T19:27:22.061Z,2.95
2022-11-02T19:29:49.408Z,3.30
2022-11-02T19:32:17.599Z,3.13
2022-11-02T19:34:44.584Z,3.33
2022-11-02T19:37:14.609Z,3.30
2022-11-02T19:39:41.726Z,2.47
2022-11-02T19:42:08.829Z,3.30
2022-11-02T19:44:41.272Z,3.78
2022-11-02T19:47:10.428Z,3.78
2022-11-02T19:49:37.524Z,3.97
2022-11-02T19:52:04.428Z,3.63
2022-11-02T19:54:31.450Z,3.47
2022-11-02T19:56:58.552Z,3.53
2022-11-02T19:59:25.469Z,3.35
2022-11-02T20:01:52.529Z,3.53
2022-11-02T20:04:19.747Z,3.92
2022-11-02T20:06:46.734Z,3.35
2022-11-02T20:09:19.848Z,3.55
2022-11-02T20:11:48.359Z,4.30
2022-11-02T20:14:17.087Z,3.67
2022-11-02T20:16:47.356Z,3.30
2022-11-02T20:19:17.228Z,3.53
2022-11-02T20:21:44.904Z,4.28
2022-11-02T20:24:12.775Z,3.53
2022-11-02T20:26:41.362Z,2.85
2022-11-02T20:29:12.268Z,3.08
2022-11-02T20:31:45.630Z,4.25
2022-11-02T20:34:13.704Z,3.78
2022-11-02T20:36:41.351Z,3.47
2022-11-02T20:39:10.906Z,3.85
2022-11-02T20:41:37.986Z,3.95
2022-11-02T20:44:04.982Z,3.95
2022-11-02T20:46:37.593Z,3.90
2022-11-02T20:49:20.259Z,3.53
2022-11-02T20:51:53.253Z,2.60
2022-11-02T20:54:22.125Z,3.45
2022-11-02T20:56:50.013Z,3.58
2022-11-02T20:59:17.642Z,3.42
2022-11-02T21:01:45.516Z,3.25
2022-11-02T21:04:19.681Z,3.33
2022-11-02T21:06:49.188Z,2.90
2022-11-02T21:09:16.547Z,2.80
2022-11-02T21:12:01.947Z,3.47
2022-11-02T21:14:28.989Z,3.10
2022-11-02T21:16:55.865Z,3.80
2022-11-02T21:19:22.744Z,3.25
2022-11-02T21:21:50.466Z,3.60
2022-11-02T21:24:19.487Z,3.25
2022-11-02T21:26:46.677Z,3.33
2022-11-02T21:29:13.637Z,2.80
2022-11-02T21:31:40.502Z,3.60
2022-11-02T21:34:07.352Z,2.65
2022-11-02T21:36:34.128Z,3.40
2022-11-02T21:39:00.954Z,2.80
2022-11-02T21:41:29.534Z,3.60
2022-11-02T21:43:56.439Z,3.30
2022-11-02T21:46:26.833Z,3.45
2022-11-02T21:48:55.634Z,3.20
2022-11-02T21:51:23.833Z,3.50
2022-11-02T21:53:51.354Z,3.17
2022-11-02T21:56:22.127Z,3.28
2022-11-02T21:58:49.548Z,3.83
2022-11-02T22:01:45.341Z,3.22
2022-11-02T22:06:42.510Z,3.67
2022-11-02T22:09:12.721Z,3.72
2022-11-02T22:11:40.427Z,3.90
2022-11-02T22:14:07.484Z,3.90
2022-11-02T22:16:43.859Z,4.10
2022-11-02T22:19:15.156Z,4.40
2022-11-02T22:21:44.382Z,5.45
2022-11-02T22:24:12.224Z,4.80
2022-11-02T22:26:40.496Z,5.93
2022-11-02T22:29:08.441Z,5.97
2022-11-02T22:31:40.367Z,6.32
2022-11-02T22:34:10.897Z,5.38
2022-11-02T22:36:41.034Z,5.70
2022-11-02T22:39:12.526Z,6.22
2022-11-02T22:41:47.723Z,5.32
2022-11-02T22:46:50.743Z,5.75
2022-11-02T22:49:19.577Z,5.82
2022-11-02T22:51:49.775Z,5.90
2022-11-02T22:54:19.607Z,5.60
2022-11-02T22:56:48.648Z,6.32
2022-11-02T22:59:16.136Z,6.13
2022-11-02T23:01:43.168Z,5.55
2022-11-02T23:04:11.788Z,5.15
2022-11-02T23:06:39.514Z,5.72
2022-11-02T23:09:06.710Z,4.70
2022-11-02T23:11:36.740Z,4.75
2022-11-02T23:14:08.790Z,4.70
2022-11-02T23:16:42.453Z,4.85
2022-11-02T23:19:25.053Z,4.65
2022-11-02T23:22:22.357Z,4.32
2022-11-02T23:25:20.008Z,5.18
2022-11-02T23:28:16.587Z,4.15
2022-11-02T23:31:02.952Z,3.08
2022-11-02T23:33:37.847Z,3.50
2022-11-02T23:36:11.467Z,3.15
2022-11-02T23:39:02.368Z,4.78
2022-11-02T23:41:31.575Z,4.13
2022-11-02T23:44:11.824Z,4.20
2022-11-02T23:46:45.580Z,4.97
2022-11-02T23:49:13.653Z,4.50
2022-11-02T23:51:59.091Z,4.63
2022-11-02T23:54:45.173Z,5.00
2022-11-02T23:57:12.646Z,4.53
2022-11-02T23:59:40.440Z,4.25
